createdAt,value
2023-05-13T00:01:38.416Z,47.78
2023-05-13T00:06:48.619Z,48.18
2023-05-13T00:09:16.848Z,45.18
2023-05-13T00:11:45.069Z,45.79
2023-05-13T00:14:13.382Z,46.33
2023-05-13T00:16:43.371Z,45.55
2023-05-13T00:19:12.188Z,45.15
2023-05-13T00:21:41.134Z,46.59
2023-05-13T00:24:09.452Z,47.92
2023-05-13T00:26:37.674Z,45.99
2023-05-13T00:29:05.882Z,45.75
2023-05-13T00:31:34.213Z,46.51
2023-05-13T00:34:04.226Z,47.02
2023-05-13T00:36:32.469Z,47.25
2023-05-13T00:39:00.671Z,48.75
2023-05-13T00:41:28.927Z,49.22
2023-05-13T00:43:57.759Z,48.56
2023-05-13T00:46:26.117Z,49.77
2023-05-13T00:48:54.495Z,48.83
2023-05-13T00:51:24.104Z,50.18
2023-05-13T00:53:52.847Z,48.72
2023-05-13T00:56:21.819Z,47.92
2023-05-13T00:58:50.318Z,49.73
2023-05-13T01:01:35.952Z,47.83
2023-05-13T01:04:13.535Z,47.80
2023-05-13T01:06:53.601Z,48.60
2023-05-13T01:09:30.723Z,51.70
2023-05-13T01:12:04.352Z,47.64
2023-05-13T01:14:35.444Z,48.76
2023-05-13T01:17:11.437Z,47.58
2023-05-13T01:19:44.065Z,47.01
2023-05-13T01:22:14.186Z,50.02
2023-05-13T01:24:42.401Z,51.15
2023-05-13T01:27:10.780Z,52.01
2023-05-13T01:29:40.835Z,53.29
2023-05-13T01:32:09.952Z,50.98
2023-05-13T01:34:38.699Z,51.54
2023-05-13T01:37:07.070Z,53.97
2023-05-13T01:39:38.600Z,49.85
2023-05-13T01:42:07.278Z,51.20
2023-05-13T01:44:35.804Z,49.25
2023-05-13T01:47:04.123Z,48.86
2023-05-13T01:49:32.367Z,46.03
2023-05-13T01:52:00.630Z,49.03
2023-05-13T01:54:28.807Z,53.72
2023-05-13T01:56:58.412Z,54.11
2023-05-13T01:59:26.603Z,55.07
2023-05-13T02:01:54.879Z,52.42
2023-05-13T02:04:23.217Z,55.11
2023-05-13T02:06:51.535Z,55.66
2023-05-13T02:09:19.872Z,53.60
2023-05-13T02:11:48.230Z,56.17
2023-05-13T02:14:17.959Z,53.01
2023-05-13T02:16:46.295Z,52.11
2023-05-13T02:19:14.589Z,55.08
2023-05-13T02:21:43.543Z,55.55
2023-05-13T02:24:11.848Z,55.36
2023-05-13T02:26:41.568Z,52.86
2023-05-13T02:29:09.884Z,64.13
2023-05-13T02:31:39.505Z,65.16
2023-05-13T02:34:07.732Z,57.92
2023-05-13T02:36:36.007Z,66.06
2023-05-13T02:39:04.317Z,60.65
2023-05-13T02:41:32.676Z,60.52
2023-05-13T02:44:00.946Z,63.35
2023-05-13T02:46:29.228Z,62.80
2023-05-13T02:48:59.353Z,61.36
2023-05-13T02:51:27.612Z,60.30
2023-05-13T02:53:55.840Z,57.91
2023-05-13T02:56:24.135Z,58.92
2023-05-13T02:58:52.518Z,58.42
2023-05-13T03:01:20.894Z,55.01
2023-05-13T03:03:49.181Z,66.47
2023-05-13T03:06:18.866Z,71.91
2023-05-13T03:08:47.210Z,60.80
2023-05-13T03:11:15.534Z,59.99
2023-05-13T03:13:43.790Z,62.70
2023-05-13T03:16:12.037Z,61.72
2023-05-13T03:18:40.429Z,61.52
2023-05-13T03:21:08.719Z,57.25
2023-05-13T03:23:38.680Z,61.76
2023-05-13T03:26:06.933Z,57.29
2023-05-13T03:28:35.182Z,60.29
2023-05-13T03:31:03.478Z,55.74
2023-05-13T03:33:31.780Z,61.73
2023-05-13T03:36:00.032Z,61.00
2023-05-13T03:38:28.281Z,56.96
2023-05-13T03:40:58.149Z,65.14
2023-05-13T03:43:26.767Z,64.86
2023-05-13T03:45:54.971Z,66.03
2023-05-13T03:48:23.178Z,60.17
2023-05-13T03:50:53.093Z,61.18
2023-05-13T03:53:21.310Z,58.65
2023-05-13T03:55:49.896Z,62.73
2023-05-13T03:58:21.696Z,56.69
2023-05-13T04:00:50.388Z,60.89
2023-05-13T04:03:19.097Z,65.45
2023-05-13T04:05:47.858Z,67.38
2023-05-13T04:08:16.477Z,69.70
2023-05-13T04:10:44.872Z,65.05
2023-05-13T04:13:13.183Z,63.37
2023-05-13T04:15:42.760Z,60.33
2023-05-13T04:18:11.028Z,67.42
2023-05-13T04:20:39.944Z,66.99
2023-05-13T04:23:08.243Z,67.98
2023-05-13T04:25:36.869Z,58.09
2023-05-13T04:28:05.504Z,59.92
2023-05-13T04:30:33.744Z,64.52
2023-05-13T04:33:03.492Z,62.87
2023-05-13T04:35:31.797Z,62.73
2023-05-13T04:38:00.120Z,63.45
2023-05-13T04:40:28.437Z,67.55
2023-05-13T04:42:56.649Z,65.43
2023-05-13T04:45:25.079Z,65.09
2023-05-13T04:47:54.900Z,66.32
2023-05-13T04:50:26.058Z,61.96
2023-05-13T04:52:56.478Z,59.53
2023-05-13T04:55:27.389Z,61.87
2023-05-13T04:57:56.047Z,63.86
2023-05-13T05:00:25.062Z,70.38
2023-05-13T05:02:53.307Z,67.28
2023-05-13T05:05:21.562Z,68.63
2023-05-13T05:07:51.163Z,68.29
2023-05-13T05:10:19.863Z,68.08
2023-05-13T05:12:48.998Z,63.31
2023-05-13T05:15:17.291Z,58.33
2023-05-13T05:17:46.152Z,55.17
2023-05-13T05:20:14.469Z,62.11
2023-05-13T05:22:42.844Z,61.08
2023-05-13T05:25:12.544Z,59.30
2023-05-13T05:27:40.741Z,63.82
2023-05-13T05:30:11.309Z,61.49
2023-05-13T05:32:39.415Z,63.72
2023-05-13T05:35:08.622Z,65.51
2023-05-13T05:37:36.880Z,65.88
2023-05-13T05:40:06.113Z,68.42
2023-05-13T05:42:35.777Z,74.37
2023-05-13T05:45:04.445Z,66.06
2023-05-13T05:47:32.670Z,72.03
2023-05-13T05:50:01.280Z,69.06
2023-05-13T05:52:29.497Z,67.96
2023-05-13T05:54:57.698Z,72.84
2023-05-13T05:57:25.920Z,78.99
2023-05-13T05:59:55.575Z,75.22
2023-05-13T06:02:23.986Z,68.22
2023-05-13T06:04:52.264Z,72.22
2023-05-13T06:07:20.657Z,67.88
2023-05-13T06:09:48.931Z,73.06
2023-05-13T06:12:17.229Z,70.27
2023-05-13T06:14:45.488Z,69.66
2023-05-13T06:17:15.747Z,67.44
2023-05-13T06:19:44.015Z,66.23
2023-05-13T06:22:12.820Z,66.19
2023-05-13T06:24:42.663Z,66.65
2023-05-13T06:27:11.606Z,73.51
2023-05-13T06:29:39.861Z,62.20
2023-05-13T06:32:08.544Z,67.69
2023-05-13T06:34:40.057Z,73.07
2023-05-13T06:37:08.587Z,65.10
2023-05-13T06:39:36.926Z,69.20
2023-05-13T06:42:05.832Z,66.95
2023-05-13T06:44:34.143Z,71.55
2023-05-13T06:47:05.023Z,61.97
2023-05-13T06:49:34.308Z,68.34
2023-05-13T06:52:03.940Z,63.55
2023-05-13T06:54:32.177Z,61.51
2023-05-13T06:57:00.837Z,62.47
2023-05-13T06:59:30.311Z,65.06
2023-05-13T07:01:58.566Z,61.19
2023-05-13T07:04:26.834Z,59.85
2023-05-13T07:06:55.393Z,64.60
2023-05-13T07:09:24.989Z,60.68
2023-05-13T07:11:53.262Z,62.46
2023-05-13T07:14:21.479Z,54.63
2023-05-13T07:16:49.799Z,53.82
2023-05-13T07:19:18.246Z,56.23
2023-05-13T07:21:46.566Z,54.96
2023-05-13T07:24:15.074Z,52.40
2023-05-13T07:26:44.629Z,55.46
2023-05-13T07:29:12.869Z,59.65
2023-05-13T07:31:41.186Z,59.00
2023-05-13T07:34:09.524Z,60.28
2023-05-13T07:36:37.822Z,53.55
2023-05-13T07:39:08.745Z,51.71
2023-05-13T07:41:37.468Z,51.76
2023-05-13T07:44:11.683Z,50.57
2023-05-13T07:46:40.082Z,50.03
2023-05-13T07:49:09.150Z,50.27
2023-05-13T07:51:37.604Z,48.60
2023-05-13T07:54:05.852Z,46.52
2023-05-13T07:56:34.156Z,48.82
2023-05-13T07:59:02.392Z,48.58
2023-05-13T08:01:31.968Z,51.28
2023-05-13T08:04:00.564Z,49.10
2023-05-13T08:06:28.932Z,49.44
2023-05-13T08:08:57.218Z,45.22
2023-05-13T08:11:26.953Z,48.45
2023-05-13T08:13:55.219Z,46.24
2023-05-13T08:16:23.507Z,49.03
2023-05-13T08:18:53.413Z,51.27
2023-05-13T08:21:21.752Z,47.56
2023-05-13T08:23:50.979Z,48.85
2023-05-13T08:26:19.322Z,51.05
2023-05-13T08:31:16.911Z,49.71
2023-05-13T08:33:47.411Z,50.61
2023-05-13T08:36:17.607Z,52.45
2023-05-13T08:38:46.109Z,53.45
2023-05-13T08:41:15.102Z,52.76
2023-05-13T08:43:44.218Z,52.56
2023-05-13T08:46:13.199Z,52.58
2023-05-13T08:48:42.830Z,50.20
2023-05-13T08:51:11.221Z,48.46
2023-05-13T08:53:41.517Z,49.88
2023-05-13T08:56:10.266Z,47.92
2023-05-13T08:58:38.476Z,47.07
2023-05-13T09:01:07.226Z,46.96
2023-05-13T09:03:36.242Z,45.98
2023-05-13T09:06:04.994Z,46.52
2023-05-13T09:08:33.442Z,43.39
2023-05-13T09:11:03.133Z,43.70
2023-05-13T09:13:31.337Z,45.44
2023-05-13T09:15:59.610Z,44.34
2023-05-13T09:18:31.229Z,46.25
2023-05-13T09:20:59.518Z,45.30
2023-05-13T09:23:28.153Z,45.54
2023-05-13T09:25:56.444Z,47.52
2023-05-13T09:28:26.272Z,48.65
2023-05-13T09:30:56.830Z,47.07
2023-05-13T09:33:31.487Z,46.32
2023-05-13T09:36:00.120Z,47.22
2023-05-13T09:38:31.606Z,45.62
2023-05-13T09:41:01.486Z,50.34
2023-05-13T09:43:33.343Z,48.29
2023-05-13T09:46:02.847Z,46.77
2023-05-13T09:48:33.744Z,48.22
2023-05-13T09:51:02.195Z,47.38
2023-05-13T09:53:30.873Z,43.21
2023-05-13T09:56:00.422Z,43.22
2023-05-13T09:58:30.825Z,44.85
2023-05-13T10:01:00.835Z,44.95
2023-05-13T10:03:29.665Z,44.81
2023-05-13T10:05:59.013Z,46.62
2023-05-13T10:08:29.366Z,45.55
2023-05-13T10:10:57.926Z,49.10
2023-05-13T10:13:26.276Z,46.75
2023-05-13T10:15:55.591Z,44.63
2023-05-13T10:18:25.560Z,46.05
2023-05-13T10:20:54.178Z,45.29
2023-05-13T10:23:24.180Z,43.39
2023-05-13T10:25:54.797Z,43.41
2023-05-13T10:28:23.312Z,46.00
2023-05-13T10:30:52.622Z,42.68
2023-05-13T10:33:21.808Z,40.34
2023-05-13T10:36:04.882Z,41.35
2023-05-13T10:38:45.340Z,42.14
2023-05-13T10:41:26.863Z,42.98
2023-05-13T10:43:58.089Z,43.15
2023-05-13T10:46:27.582Z,44.85
2023-05-13T10:49:01.546Z,42.33
2023-05-13T10:51:32.254Z,43.43
2023-05-13T10:54:00.527Z,43.51
2023-05-13T10:56:29.823Z,43.19
2023-05-13T10:58:59.310Z,41.42
2023-05-13T11:01:29.982Z,41.99
2023-05-13T11:04:00.120Z,43.11
2023-05-13T11:06:35.271Z,41.77
2023-05-13T11:09:06.336Z,41.57
2023-05-13T11:11:35.598Z,41.04
2023-05-13T11:14:08.815Z,40.57
2023-05-13T11:16:38.123Z,41.56
2023-05-13T11:19:10.903Z,42.31
2023-05-13T11:21:41.293Z,41.92
2023-05-13T11:24:09.707Z,40.25
2023-05-13T11:26:49.074Z,41.92
2023-05-13T11:29:28.812Z,42.43
2023-05-13T11:32:00.274Z,41.39
2023-05-13T11:34:29.454Z,39.28
2023-05-13T11:37:08.643Z,40.37
2023-05-13T11:39:37.450Z,41.08
2023-05-13T11:42:08.921Z,38.58
2023-05-13T11:44:37.854Z,37.31
2023-05-13T11:47:08.133Z,37.74
2023-05-13T11:49:39.786Z,37.76
2023-05-13T11:52:11.298Z,36.37
2023-05-13T11:54:48.521Z,36.11
2023-05-13T11:57:20.534Z,38.69
2023-05-13T11:59:57.661Z,35.99
2023-05-13T12:02:28.131Z,36.96
2023-05-13T12:04:57.104Z,38.13
2023-05-13T12:07:27.697Z,40.33
2023-05-13T12:09:58.236Z,41.75
2023-05-13T12:12:26.886Z,41.20
2023-05-13T12:14:56.223Z,42.54
2023-05-13T12:17:25.024Z,40.72
2023-05-13T12:20:06.639Z,40.20
2023-05-13T12:22:37.124Z,39.93
2023-05-13T12:25:20.465Z,39.47
2023-05-13T12:27:53.085Z,41.11
2023-05-13T12:30:21.504Z,40.44
2023-05-13T12:32:49.797Z,42.83
2023-05-13T12:35:18.079Z,40.08
2023-05-13T12:38:00.280Z,39.20
2023-05-13T12:40:28.554Z,39.25
2023-05-13T12:43:00.170Z,39.07
2023-05-13T12:45:30.165Z,38.03
2023-05-13T12:47:59.347Z,39.32
2023-05-13T12:50:27.958Z,39.55
2023-05-13T12:52:59.907Z,39.60
2023-05-13T12:55:28.286Z,39.19
2023-05-13T12:57:57.462Z,37.47
2023-05-13T13:00:26.724Z,36.82
2023-05-13T13:02:55.066Z,36.88
2023-05-13T13:05:24.248Z,36.96
2023-05-13T13:07:52.713Z,36.40
2023-05-13T13:10:22.431Z,36.81
2023-05-13T13:12:50.854Z,34.84
2023-05-13T13:15:19.067Z,35.03
2023-05-13T13:17:47.421Z,33.18
2023-05-13T13:20:15.737Z,32.53
2023-05-13T13:22:43.961Z,33.73
2023-05-13T13:25:12.220Z,32.71
2023-05-13T13:27:41.935Z,35.68
2023-05-13T13:30:10.798Z,34.69
2023-05-13T13:32:38.999Z,34.21
2023-05-13T13:35:08.067Z,35.12
2023-05-13T13:37:38.059Z,34.14
2023-05-13T13:40:07.551Z,33.56
2023-05-13T13:42:44.238Z,31.82
2023-05-13T13:45:14.967Z,33.50
2023-05-13T13:47:43.570Z,34.11
2023-05-13T13:50:12.813Z,33.78
2023-05-13T13:52:41.101Z,33.48
2023-05-13T13:55:11.622Z,33.36
2023-05-13T13:57:40.154Z,33.40
2023-05-13T14:00:09.577Z,33.40
2023-05-13T14:02:39.263Z,35.47
2023-05-13T14:05:08.580Z,34.69
2023-05-13T14:07:37.317Z,35.09
2023-05-13T14:10:06.524Z,34.43
2023-05-13T14:12:35.929Z,34.79
2023-05-13T14:15:04.554Z,34.47
2023-05-13T14:17:33.332Z,34.34
2023-05-13T14:20:03.676Z,35.17
2023-05-13T14:22:31.906Z,34.48
2023-05-13T14:25:01.345Z,33.33
2023-05-13T14:27:29.811Z,33.14
2023-05-13T14:29:58.078Z,33.14
2023-05-13T14:32:26.391Z,32.43
2023-05-13T14:34:54.625Z,31.53
2023-05-13T14:37:24.245Z,31.39
2023-05-13T14:39:52.440Z,33.45
2023-05-13T14:42:21.155Z,31.50
2023-05-13T14:44:49.358Z,31.96
2023-05-13T14:47:17.664Z,31.79
2023-05-13T14:49:45.881Z,31.62
2023-05-13T14:52:14.230Z,31.35
2023-05-13T14:54:43.869Z,32.76
2023-05-13T14:57:12.223Z,32.51
2023-05-13T14:59:40.469Z,33.09
2023-05-13T15:02:09.320Z,33.80
2023-05-13T15:04:37.565Z,33.17
2023-05-13T15:07:06.309Z,33.74
2023-05-13T15:09:34.633Z,34.69
2023-05-13T15:12:04.306Z,34.56
2023-05-13T15:14:32.549Z,33.70
2023-05-13T15:17:00.942Z,33.90
2023-05-13T15:19:29.294Z,34.00
2023-05-13T15:21:57.634Z,33.58
2023-05-13T15:24:25.903Z,34.38
2023-05-13T15:26:54.189Z,34.94
2023-05-13T15:29:23.794Z,35.33
2023-05-13T15:31:52.039Z,35.44
2023-05-13T15:34:20.320Z,35.28
2023-05-13T15:36:48.688Z,35.90
2023-05-13T15:39:17.537Z,34.85
2023-05-13T15:41:45.835Z,34.48
2023-05-13T15:44:14.169Z,35.16
2023-05-13T15:46:43.814Z,34.45
2023-05-13T15:49:12.132Z,34.76
2023-05-13T15:51:40.411Z,36.89
2023-05-13T15:54:08.733Z,37.76
2023-05-13T15:56:37.103Z,39.81
2023-05-13T15:59:05.376Z,39.46
2023-05-13T16:01:33.755Z,40.49
2023-05-13T16:04:03.400Z,40.13
2023-05-13T16:06:31.849Z,39.68
2023-05-13T16:09:01.787Z,39.56
2023-05-13T16:11:30.310Z,39.49
2023-05-13T16:13:58.772Z,38.35
2023-05-13T16:16:27.136Z,38.19
2023-05-13T16:18:55.556Z,37.85
2023-05-13T16:21:25.324Z,38.58
2023-05-13T16:23:53.634Z,39.79
2023-05-13T16:26:22.432Z,40.31
2023-05-13T16:28:51.114Z,40.06
2023-05-13T16:31:19.639Z,39.74
2023-05-13T16:33:47.911Z,39.09
2023-05-13T16:36:17.436Z,38.54
2023-05-13T16:38:47.452Z,38.15
2023-05-13T16:41:15.738Z,38.09
2023-05-13T16:43:43.942Z,38.89
2023-05-13T16:46:12.249Z,37.82
2023-05-13T16:48:40.579Z,38.50
2023-05-13T16:51:08.905Z,38.13
2023-05-13T16:53:37.147Z,38.95
2023-05-13T16:56:07.084Z,38.36
2023-05-13T16:58:35.353Z,39.67
2023-05-13T17:01:03.726Z,40.02
2023-05-13T17:03:32.077Z,39.60
2023-05-13T17:06:00.381Z,39.95
2023-05-13T17:08:28.698Z,39.13
2023-05-13T17:10:56.966Z,39.39
2023-05-13T17:13:26.668Z,39.20
2023-05-13T17:15:55.042Z,39.46
2023-05-13T17:18:23.561Z,38.38
2023-05-13T17:20:51.881Z,39.21
2023-05-13T17:23:20.212Z,38.77
2023-05-13T17:25:48.562Z,38.59
2023-05-13T17:28:16.813Z,38.31
2023-05-13T17:30:46.530Z,38.38
2023-05-13T17:33:14.829Z,39.00
2023-05-13T17:35:43.136Z,37.89
2023-05-13T17:38:11.384Z,38.35
2023-05-13T17:40:39.631Z,37.66
2023-05-13T17:43:07.945Z,37.52
2023-05-13T17:45:36.634Z,38.56
2023-05-13T17:48:07.102Z,38.92
2023-05-13T17:50:35.272Z,38.35
2023-05-13T17:53:03.478Z,38.43
2023-05-13T17:55:31.722Z,37.21
2023-05-13T17:57:59.964Z,37.52
2023-05-13T18:00:28.406Z,38.17
2023-05-13T18:02:56.675Z,38.25
2023-05-13T18:05:26.302Z,38.27
2023-05-13T18:07:54.601Z,38.88
2023-05-13T18:10:23.052Z,38.60
2023-05-13T18:12:51.863Z,39.53
2023-05-13T18:15:20.157Z,39.28
2023-05-13T18:17:48.463Z,39.79
2023-05-13T18:20:16.954Z,39.94
2023-05-13T18:22:46.704Z,40.44
2023-05-13T18:25:14.924Z,41.66
2023-05-13T18:27:43.157Z,41.30
2023-05-13T18:30:12.789Z,41.23
2023-05-13T18:32:41.026Z,40.23
2023-05-13T18:35:09.998Z,41.88
2023-05-13T18:37:38.484Z,40.96
2023-05-13T18:40:09.732Z,43.11
2023-05-13T18:42:38.042Z,46.27
2023-05-13T18:45:07.910Z,45.60
2023-05-13T18:47:36.210Z,44.16
2023-05-13T18:50:04.698Z,43.91
2023-05-13T18:52:32.911Z,43.17
2023-05-13T18:55:04.580Z,42.24
2023-05-13T18:57:34.194Z,42.45
2023-05-13T19:00:02.423Z,45.99
2023-05-13T19:02:30.896Z,46.58
2023-05-13T19:05:00.116Z,46.70
2023-05-13T19:07:28.566Z,48.98
2023-05-13T19:09:56.817Z,50.87
2023-05-13T19:12:25.090Z,48.47
2023-05-13T19:14:54.746Z,49.35
2023-05-13T19:17:23.097Z,53.30
2023-05-13T19:19:51.385Z,54.51
2023-05-13T19:22:19.610Z,54.13
2023-05-13T19:24:47.866Z,58.50
2023-05-13T19:27:16.104Z,57.56
2023-05-13T19:29:44.414Z,59.10
2023-05-13T19:32:14.005Z,62.27
2023-05-13T19:34:42.193Z,61.50
2023-05-13T19:37:10.635Z,63.80
2023-05-13T19:39:38.885Z,63.64
2023-05-13T19:42:07.416Z,59.14
2023-05-13T19:44:35.729Z,57.02
2023-05-13T19:47:05.751Z,57.80
2023-05-13T19:49:35.324Z,57.75
2023-05-13T19:52:03.592Z,58.25
2023-05-13T19:54:31.873Z,53.09
2023-05-13T19:57:00.285Z,52.34
2023-05-13T19:59:28.676Z,53.27
2023-05-13T20:01:56.907Z,52.01
2023-05-13T20:04:25.166Z,51.07
2023-05-13T20:06:54.742Z,52.20
2023-05-13T20:09:22.956Z,50.89
2023-05-13T20:11:51.236Z,50.29
2023-05-13T20:14:24.965Z,50.33
2023-05-13T20:16:53.276Z,50.14
2023-05-13T20:19:21.730Z,51.02
2023-05-13T20:21:49.983Z,51.21
2023-05-13T20:24:19.601Z,51.65
2023-05-13T20:26:47.981Z,52.36
2023-05-13T20:29:16.178Z,56.73
2023-05-13T20:31:44.459Z,63.38
2023-05-13T20:34:12.714Z,66.45
2023-05-13T20:36:40.926Z,69.43
2023-05-13T20:39:09.128Z,73.68
2023-05-13T20:41:38.782Z,74.60
2023-05-13T20:44:07.049Z,68.76
2023-05-13T20:46:35.405Z,68.63
2023-05-13T20:49:03.657Z,73.79
2023-05-13T20:51:32.000Z,72.77
2023-05-13T20:54:00.234Z,66.92
2023-05-13T20:56:28.467Z,72.53
2023-05-13T20:58:58.091Z,67.02
2023-05-13T21:01:26.586Z,68.23
2023-05-13T21:03:55.005Z,64.83
2023-05-13T21:06:23.231Z,59.76
2023-05-13T21:08:52.131Z,57.59
2023-05-13T21:11:21.352Z,56.73
2023-05-13T21:13:49.561Z,55.31
2023-05-13T21:16:19.252Z,56.76
2023-05-13T21:18:47.529Z,58.55
2023-05-13T21:21:15.822Z,61.20
2023-05-13T21:23:45.620Z,58.83
2023-05-13T21:26:14.487Z,57.29
2023-05-13T21:28:42.762Z,57.54
2023-05-13T21:31:11.110Z,57.44
2023-05-13T21:33:40.958Z,61.37
2023-05-13T21:36:09.554Z,58.74
2023-05-13T21:38:37.830Z,59.47
2023-05-13T21:41:06.136Z,59.38
2023-05-13T21:43:34.455Z,57.30
2023-05-13T21:46:03.250Z,58.45
2023-05-13T21:48:31.580Z,57.11
2023-05-13T21:51:01.192Z,55.77
2023-05-13T21:53:29.898Z,54.79
2023-05-13T21:56:00.251Z,56.13
2023-05-13T21:58:28.717Z,56.82
2023-05-13T22:00:57.056Z,56.35
2023-05-13T22:03:25.559Z,57.65
2023-05-13T22:05:53.836Z,58.70
2023-05-13T22:08:23.438Z,55.86
2023-05-13T22:10:51.750Z,56.42
2023-05-13T22:13:21.439Z,64.23
2023-05-13T22:15:49.852Z,61.85
2023-05-13T22:18:18.131Z,62.53
2023-05-13T22:20:46.446Z,65.76
2023-05-13T22:23:14.666Z,63.28
2023-05-13T22:25:44.259Z,74.07
2023-05-13T22:28:12.499Z,66.02
2023-05-13T22:30:40.709Z,64.46
2023-05-13T22:33:09.007Z,63.60
2023-05-13T22:35:37.318Z,62.51
2023-05-13T22:38:05.678Z,66.55
2023-05-13T22:40:33.968Z,63.65
2023-05-13T22:43:03.588Z,68.05
2023-05-13T22:45:31.830Z,62.30
2023-05-13T22:48:00.191Z,61.69
2023-05-13T22:50:28.603Z,59.53
2023-05-13T22:52:57.494Z,59.48
2023-05-13T22:55:25.699Z,58.79
2023-05-13T22:57:53.959Z,58.04
2023-05-13T23:00:23.948Z,55.88
2023-05-13T23:02:52.410Z,56.26
2023-05-13T23:05:20.703Z,57.22
2023-05-13T23:07:48.905Z,59.32
2023-05-13T23:10:17.267Z,57.76
2023-05-13T23:12:45.509Z,56.49
2023-05-13T23:15:15.955Z,56.17
2023-05-13T23:17:45.736Z,58.62
2023-05-13T23:20:14.074Z,55.95
2023-05-13T23:22:42.330Z,58.54
2023-05-13T23:25:11.171Z,59.36
2023-05-13T23:27:39.420Z,56.87
2023-05-13T23:30:09.077Z,58.92
2023-05-13T23:32:37.405Z,59.57
2023-05-13T23:35:08.413Z,59.08
2023-05-13T23:37:37.354Z,57.85
2023-05-13T23:40:06.905Z,55.85
2023-05-13T23:42:36.323Z,59.20
2023-05-13T23:45:05.108Z,62.10
2023-05-13T23:47:33.324Z,57.53
2023-05-13T23:50:02.212Z,57.12
2023-05-13T23:52:31.768Z,58.21
2023-05-13T23:55:00.040Z,56.15
2023-05-13T23:57:28.243Z,54.29
2023-05-13T23:59:56.478Z,58.22
